Time;durP1;ratioP1;P1;durP2;ratioP2;P2;SDS_P1;SDS_P2;PMS_P1;PMS_P2;Temp;Humidity;BMP_temperature;BMP_pressure;BME280_temperature;BME280_humidity;BME280_pressure;Samples;Min_cycle;Max_cycle;Signal;HPM_P1;HPM_P2
2023/05/18 00:03:57;;;;;;;7.63;3.70;;;;;;;7.35;50.26;100162.69;10342812;28;20241;-69
2023/05/18 00:08:59;;;;;;;6.70;4.13;;;;;;;7.24;50.20;100165.59;10344125;28;20257;-69
2023/05/18 00:14:02;;;;;;;9.83;4.50;;;;;;;7.66;49.55;100196.88;10355126;28;20324;-70
2023/05/18 00:19:03;;;;;;;10.97;5.07;;;;;;;7.10;50.50;100166.97;10349585;28;20233;-70
2023/05/18 00:24:06;;;;;;;5.40;3.70;;;;;;;7.24;50.56;100190.41;10351160;28;20265;-70
2023/05/18 00:29:08;;;;;;;6.77;4.70;;;;;;;6.74;51.07;100151.81;10350678;28;20320;-69
2023/05/18 00:34:12;;;;;;;9.90;4.00;;;;;;;7.52;50.20;100192.97;10349322;28;20233;-69
2023/05/18 00:39:14;;;;;;;9.97;4.43;;;;;;;7.78;50.17;100213.47;10348232;28;20231;-69
2023/05/18 00:44:15;;;;;;;8.73;4.10;;;;;;;8.32;49.57;100230.19;10350097;28;20224;-69
2023/05/18 00:49:17;;;;;;;3.90;3.50;;;;;;;7.27;50.56;100213.22;10345700;28;20236;-69
2023/05/18 00:54:21;;;;;;;5.97;3.97;;;;;;;7.06;50.57;100197.56;10345843;28;20303;-69
2023/05/18 00:59:24;;;;;;;10.47;4.43;;;;;;;6.95;50.83;100202.13;10345686;28;20322;-70
2023/05/18 01:04:26;;;;;;;6.80;3.97;;;;;;;7.11;50.56;100209.41;10343205;28;20237;-70
2023/05/18 01:09:28;;;;;;;6.70;4.50;;;;;;;8.14;48.66;100258.72;10345477;28;20329;-70
2023/05/18 01:14:36;;;;;;;8.93;3.80;;;;;;;8.48;48.01;100293.41;10347512;28;20245;-69
2023/05/18 01:19:58;;;;;;;6.93;3.70;;;;;;;8.40;47.55;100310.19;10347346;28;20335;-70
2023/05/18 01:25:07;;;;;;;7.03;3.30;;;;;;;9.44;46.05;100332.38;10354902;28;20740;-69
2023/05/18 01:30:09;;;;;;;6.97;3.60;;;;;;;8.61;48.02;100335.69;10344232;28;20233;-69
2023/05/18 01:35:13;;;;;;;9.90;3.80;;;;;;;8.97;46.55;100355.06;10346415;28;20260;-70
2023/05/18 01:40:15;;;;;;;7.20;4.13;;;;;;;8.27;47.42;100341.81;10340993;28;20320;-70
2023/05/18 01:45:21;;;;;;;7.67;3.43;;;;;;;8.66;47.22;100360.88;10344105;28;20279;-69
2023/05/18 01:50:37;;;;;;;6.53;3.60;;;;;;;7.48;48.55;100316.78;10343735;28;20260;-69
2023/05/18 01:55:40;;;;;;;3.87;3.10;;;;;;;8.22;48.22;100342.25;10345882;28;20906;-69
2023/05/18 02:00:41;;;;;;;8.10;3.30;;;;;;;7.83;49.48;100333.72;10339386;28;20325;-69
2023/05/18 02:05:43;;;;;;;6.13;3.80;;;;;;;7.63;48.56;100315.25;10343010;28;20329;-69
2023/05/18 02:10:47;;;;;;;8.77;4.20;;;;;;;7.16;49.58;100297.63;10335517;28;20237;-70
2023/05/18 02:15:52;;;;;;;6.17;3.80;;;;;;;7.13;49.33;100297.09;10339459;28;20245;-69
2023/05/18 02:20:59;;;;;;;9.17;3.60;;;;;;;7.25;49.15;100295.88;10342044;28;20237;-70
2023/05/18 02:26:01;;;;;;;7.43;3.90;;;;;;;7.02;49.62;100287.50;10336886;28;20241;-69
2023/05/18 02:31:13;;;;;;;6.30;3.60;;;;;;;6.76;49.66;100268.72;10336966;28;20230;-70
2023/05/18 02:36:17;;;;;;;6.27;3.27;;;;;;;6.14;50.93;100236.47;10344668;28;20321;-69
2023/05/18 02:41:19;;;;;;;9.10;4.20;;;;;;;7.78;47.93;100304.03;10345082;28;20234;-69
2023/05/18 02:46:21;;;;;;;5.93;3.37;;;;;;;6.66;49.68;100274.03;10340578;28;20338;-70
2023/05/18 02:51:23;;;;;;;8.27;3.47;;;;;;;7.19;49.11;100301.81;10341706;28;20228;-70
2023/05/18 02:56:27;;;;;;;6.47;3.50;;;;;;;7.12;49.37;100312.22;10344225;28;20229;-69
2023/05/18 03:01:29;;;;;;;6.20;3.83;;;;;;;7.48;49.28;100325.59;10334473;28;20756;-69
2023/05/18 03:06:31;;;;;;;6.27;4.10;;;;;;;6.99;49.79;100301.94;10346355;28;20233;-69
2023/05/18 03:11:32;;;;;;;5.23;3.57;;;;;;;7.23;48.96;100308.50;10338778;28;20663;-70
2023/05/18 03:16:37;;;;;;;8.03;4.00;;;;;;;7.02;49.86;100315.91;10340492;28;20230;-69
2023/05/18 03:21:40;;;;;;;8.30;4.10;;;;;;;6.63;49.84;100296.47;10340242;28;20609;-70
2023/05/18 03:26:45;;;;;;;8.60;3.87;;;;;;;6.93;49.90;100323.78;10339659;28;20239;-69
2023/05/18 03:31:46;;;;;;;7.40;3.97;;;;;;;7.50;49.07;100341.41;10335962;28;20231;-70
2023/05/18 03:36:50;;;;;;;12.20;4.33;;;;;;;7.59;48.46;100351.16;10343359;28;20254;-69
2023/05/18 03:41:52;;;;;;;10.83;4.63;;;;;;;7.04;49.35;100337.88;10341067;28;20225;-69
2023/05/18 03:46:53;;;;;;;7.40;4.67;;;;;;;6.73;49.86;100340.78;10342431;28;20228;-69
2023/05/18 03:51:55;;;;;;;8.97;4.30;;;;;;;6.93;49.80;100342.41;10347234;28;20276;-69
2023/05/18 03:56:57;;;;;;;8.03;4.13;;;;;;;7.66;49.36;100376.22;10345777;28;20237;-69
2023/05/18 04:01:58;;;;;;;15.47;4.87;;;;;;;6.60;50.60;100341.13;10345763;28;20242;-69
2023/05/18 04:07:01;;;;;;;8.73;4.77;;;;;;;6.51;50.77;100345.47;10348642;28;20230;-69
2023/05/18 04:12:03;;;;;;;8.73;4.53;;;;;;;6.58;50.99;100346.59;10343995;28;20229;-69
2023/05/18 04:17:05;;;;;;;11.50;4.70;;;;;;;6.70;50.58;100373.00;10353812;28;20229;-69
2023/05/18 04:22:07;;;;;;;10.83;4.57;;;;;;;7.24;49.52;100375.91;10341516;28;20320;-70
2023/05/18 04:27:09;;;;;;;7.97;4.50;;;;;;;7.01;49.94;100394.91;10343054;28;21474;-69
2023/05/18 04:32:10;;;;;;;8.03;4.40;;;;;;;6.20;51.25;100374.09;10344497;28;20700;-69
2023/05/18 04:37:12;;;;;;;5.00;4.07;;;;;;;7.25;49.25;100399.69;10345624;28;20275;-69
2023/05/18 04:42:17;;;;;;;8.47;4.20;;;;;;;8.38;47.51;100448.19;10341518;28;20316;-69
2023/05/18 04:47:20;;;;;;;8.67;3.97;;;;;;;9.07;46.82;100475.09;10345347;28;20230;-69
2023/05/18 04:52:22;;;;;;;7.10;4.23;;;;;;;8.57;47.94;100473.03;10341152;28;20234;-69
2023/05/18 04:57:24;;;;;;;10.07;4.00;;;;;;;7.63;49.42;100482.19;10339228;28;20233;-69
2023/05/18 05:05:25;;;;;;;7.70;3.90;;;;;;;4.85;55.89;100440.78;10458700;27;2005337;-70
2023/05/18 05:10:27;;;;;;;6.80;4.20;;;;;;;6.18;53.95;100466.41;10461231;28;20735;-71
2023/05/18 05:15:32;;;;;;;8.73;4.10;;;;;;;6.81;52.79;100481.94;10461894;28;20241;-70
2023/05/18 05:20:35;;;;;;;7.17;3.70;;;;;;;7.20;52.22;100484.50;10485532;28;20238;-70
2023/05/18 05:25:36;;;;;;;7.37;4.07;;;;;;;6.29;52.51;100470.75;10499864;28;20327;-70
2023/05/18 05:30:38;;;;;;;9.40;4.17;;;;;;;7.59;51.56;100489.66;10501137;28;20250;-70
2023/05/18 05:35:40;;;;;;;7.73;4.10;;;;;;;8.10;50.58;100498.94;10501127;28;20325;-70
2023/05/18 05:40:41;;;;;;;7.40;3.80;;;;;;;7.48;50.80;100493.38;10499285;28;20284;-70
2023/05/18 05:45:43;;;;;;;7.40;3.80;;;;;;;8.02;50.65;100496.19;10499051;28;20235;-70
2023/05/18 05:50:45;;;;;;;7.90;3.87;;;;;;;7.98;50.71;100505.47;10500845;28;20262;-70
2023/05/18 05:55:46;;;;;;;8.90;4.03;;;;;;;8.13;50.70;100508.47;10475009;28;20377;-70
2023/05/18 06:00:49;;;;;;;7.67;3.70;;;;;;;8.26;50.42;100516.94;10470615;28;20223;-70
2023/05/18 06:05:51;;;;;;;7.27;3.73;;;;;;;8.93;49.97;100537.06;10505259;28;20233;-70
2023/05/18 06:10:54;;;;;;;7.80;3.90;;;;;;;7.67;51.42;100550.19;10503662;28;20892;-70
2023/05/18 06:15:55;;;;;;;5.73;3.47;;;;;;;9.31;49.46;100551.84;10479961;28;20728;-70
2023/05/18 06:20:57;;;;;;;8.37;4.47;;;;;;;8.45;50.33;100552.44;10470767;28;20247;-70
2023/05/18 06:25:59;;;;;;;7.33;3.53;;;;;;;7.25;51.63;100564.75;10475506;28;20497;-70
2023/05/18 06:31:01;;;;;;;5.93;3.50;;;;;;;8.82;49.71;100548.78;10474479;28;20338;-70
2023/05/18 06:36:03;;;;;;;7.77;3.70;;;;;;;9.07;49.27;100555.19;10474903;28;20897;-71
2023/05/18 06:41:04;;;;;;;5.63;3.53;;;;;;;8.57;48.85;100559.25;10479035;28;20327;-70
2023/05/18 06:46:08;;;;;;;6.53;3.37;;;;;;;9.90;47.40;100581.41;10472521;28;20804;-70
2023/05/18 06:51:10;;;;;;;5.73;3.97;;;;;;;8.92;48.34;100570.91;10471791;28;20308;-70
2023/05/18 06:56:12;;;;;;;8.17;3.70;;;;;;;8.99;48.87;100580.00;10474198;28;20235;-70
2023/05/18 07:01:14;;;;;;;6.07;3.17;;;;;;;9.96;47.68;100583.44;10468690;28;20265;-70
2023/05/18 07:06:23;;;;;;;8.30;3.67;;;;;;;10.26;46.54;100591.06;10467833;28;20738;-70
2023/05/18 07:11:24;;;;;;;6.87;3.60;;;;;;;10.45;47.01;100596.13;10468141;28;20223;-71
2023/05/18 07:16:29;;;;;;;7.77;3.67;;;;;;;9.88;47.43;100604.78;10471658;28;20384;-69
2023/05/18 07:21:31;;;;;;;9.80;3.40;;;;;;;10.14;46.90;100595.88;10469318;28;20234;-70
2023/05/18 07:26:33;;;;;;;7.07;3.10;;;;;;;9.41;47.31;100583.78;10470061;28;20330;-69
2023/05/18 07:31:40;;;;;;;5.73;3.13;;;;;;;10.25;46.78;100613.47;10471348;28;20228;-68
2023/05/18 07:36:42;;;;;;;6.77;3.83;;;;;;;11.68;45.37;100615.97;10469829;28;20234;-70
2023/05/18 07:41:47;;;;;;;6.90;3.83;;;;;;;11.50;46.15;100600.03;10452426;28;20330;-69
2023/05/18 07:46:49;;;;;;;6.63;3.00;;;;;;;10.27;45.67;100585.53;10467273;28;20692;-69
2023/05/18 07:51:51;;;;;;;8.13;3.23;;;;;;;11.11;44.71;100582.00;10468554;28;20223;-71
2023/05/18 07:56:53;;;;;;;5.20;3.40;;;;;;;12.11;44.01;100598.50;10471141;28;20685;-72
2023/05/18 08:01:58;;;;;;;4.80;3.30;;;;;;;11.15;45.69;100586.00;10469724;28;20318;-71
2023/05/18 08:07:00;;;;;;;5.60;3.30;;;;;;;11.60;44.97;100588.09;10471600;28;20231;-70
2023/05/18 08:12:02;;;;;;;7.33;3.30;;;;;;;11.83;45.10;100589.25;10469155;28;20238;-69
2023/05/18 08:17:04;;;;;;;9.60;3.17;;;;;;;10.52;45.04;100583.75;10467387;28;20938;-69
2023/05/18 08:22:06;;;;;;;7.43;3.83;;;;;;;11.49;44.32;100563.50;10430319;28;20281;-69
2023/05/18 08:27:10;;;;;;;4.87;3.00;;;;;;;11.78;43.47;100566.47;10457496;28;20349;-69
2023/05/18 08:32:11;;;;;;;12.27;3.33;;;;;;;12.77;42.69;100589.28;10467217;28;20223;-70
2023/05/18 08:37:13;;;;;;;7.80;3.03;;;;;;;12.05;43.57;100567.03;10468024;28;20764;-71
2023/05/18 08:42:43;;;;;;;6.33;3.17;;;;;;;12.66;43.71;100564.50;10466727;28;20224;-70
2023/05/18 08:47:55;;;;;;;5.80;3.40;;;;;;;13.29;42.94;100591.19;10429674;28;20222;-71
2023/05/18 08:53:00;;;;;;;7.27;3.63;;;;;;;12.32;42.73;100551.47;10467706;28;20304;-69
2023/05/18 08:58:06;;;;;;;9.47;3.03;;;;;;;12.06;42.75;100533.00;10470695;28;20203;-70
2023/05/18 09:03:14;;;;;;;6.07;3.33;;;;;;;13.01;42.22;100556.84;10445637;28;20236;-71
2023/05/18 09:08:17;;;;;;;8.10;3.67;;;;;;;12.65;43.14;100527.91;10425346;28;20247;-72
2023/05/18 09:13:20;;;;;;;5.60;3.30;;;;;;;12.23;42.65;100523.00;10427126;28;20308;-71
2023/05/18 09:18:26;;;;;;;6.40;3.47;;;;;;;13.69;41.72;100531.81;10468261;28;20234;-71
2023/05/18 09:23:29;;;;;;;4.50;3.60;;;;;;;13.23;42.40;100512.13;10424313;28;20255;-71
2023/05/18 09:33:04;;;;;;;7.10;3.70;;;;;;;13.70;42.74;100520.00;10434130;28;20828;-39
2023/05/18 09:38:06;;;;;;;5.57;3.80;;;;;;;14.37;41.81;100530.56;10455414;28;20238;-39
2023/05/18 09:43:08;;;;;;;7.03;3.10;;;;;;;14.73;41.92;100518.88;10452953;22;20235;-38
2023/05/18 09:48:11;;;;;;;8.77;4.20;;;;;;;13.78;42.72;100509.97;10422654;28;20312;-38
2023/05/18 09:53:13;;;;;;;8.67;3.67;;;;;;;14.94;41.98;100501.88;10398139;28;20232;-39
2023/05/18 09:58:18;;;;;;;8.10;3.37;;;;;;;14.50;41.62;100440.16;10389487;28;20239;-39
2023/05/18 10:03:32;;;;;;;6.30;3.43;;;;;;;14.38;41.47;100464.91;10389593;28;20240;-38
2023/05/18 10:08:35;;;;;;;7.67;3.87;;;;;;;13.83;41.85;100461.84;10384297;28;20271;-37
2023/05/18 10:13:46;;;;;;;6.30;3.77;;;;;;;13.99;41.77;100498.44;10389969;28;20283;-38
2023/05/18 10:18:49;;;;;;;8.50;4.17;;;;;;;13.53;41.94;100503.25;10385837;28;20213;-37
2023/05/18 10:23:51;;;;;;;6.17;3.63;;;;;;;15.22;40.81;100459.75;10384852;28;20590;-37
2023/05/18 10:28:55;;;;;;;7.57;3.57;;;;;;;14.83;40.89;100455.75;10383743;28;20322;-38
2023/05/18 10:34:02;;;;;;;5.50;3.23;;;;;;;14.09;41.41;100471.25;10385292;28;20356;-39
2023/05/18 10:39:06;;;;;;;6.83;3.07;;;;;;;13.75;41.42;100488.00;10383467;28;20256;-39
2023/05/18 10:44:09;;;;;;;9.33;3.80;;;;;;;15.33;41.32;100437.63;10359822;28;20328;-37
2023/05/18 10:49:16;;;;;;;6.43;3.20;;;;;;;14.81;39.83;100438.94;10357999;28;20253;-36
2023/05/18 10:54:19;;;;;;;5.90;3.60;;;;;;;13.81;39.47;100463.06;10356283;28;20292;-37
2023/05/18 10:59:24;;;;;;;7.83;3.50;;;;;;;14.08;39.48;100433.78;10358940;28;20210;-37
2023/05/18 11:06:26;;;;;;;9.53;3.40;;;;;;;13.42;42.20;100453.47;10457932;27;20847;-73
2023/05/18 11:11:29;;;;;;;6.43;3.10;;;;;;;12.88;41.10;100478.72;10464380;28;20250;-73
2023/05/18 11:16:38;;;;;;;6.93;3.87;;;;;;;13.60;39.87;100432.41;10467200;28;20277;-70
2023/05/18 11:21:47;;;;;;;8.83;3.43;;;;;;;13.75;39.01;100410.84;10465686;28;20231;-68
2023/05/18 11:27:14;;;;;;;8.97;3.27;;;;;;;13.34;40.43;100470.53;10467102;28;20271;-70
2023/05/18 11:32:28;;;;;;;6.27;3.17;;;;;;;14.81;39.56;100423.59;10466748;28;20230;-70
2023/05/18 11:37:37;;;;;;;6.33;3.20;;;;;;;14.07;39.80;100440.16;10468255;28;20235;-73
2023/05/18 11:42:39;;;;;;;4.13;2.80;;;;;;;14.63;38.86;100397.19;10465935;28;20241;-73
2023/05/18 11:47:41;;;;;;;6.63;3.10;;;;;;;13.78;39.57;100447.28;10462348;28;20270;-73
2023/05/18 11:52:48;;;;;;;10.87;3.27;;;;;;;14.26;39.56;100425.25;10465835;28;20232;-73
2023/05/18 11:57:51;;;;;;;3.83;2.60;;;;;;;14.64;38.68;100420.38;10462311;28;20228;-72
2023/05/18 12:02:55;;;;;;;7.97;3.60;;;;;;;14.62;38.94;100441.28;10460040;28;20238;-73
2023/05/18 12:07:57;;;;;;;8.17;3.00;;;;;;;14.50;39.29;100414.06;10463816;28;20216;-68
2023/05/18 12:13:01;;;;;;;7.13;3.30;;;;;;;14.62;38.30;100379.34;10466203;28;20331;-72
2023/05/18 12:18:03;;;;;;;8.00;2.93;;;;;;;15.04;38.00;100382.13;10435423;28;20246;-72
2023/05/18 12:23:07;;;;;;;6.03;3.23;;;;;;;14.63;39.49;100417.88;10434652;28;20314;-71
2023/05/18 12:28:09;;;;;;;6.53;2.67;;;;;;;14.73;38.05;100405.75;10428938;28;20314;-71
2023/05/18 12:33:16;;;;;;;7.27;3.00;;;;;;;14.08;38.32;100375.41;10430238;28;20232;-71
2023/05/18 12:38:24;;;;;;;6.10;3.00;;;;;;;15.93;37.45;100375.78;10435281;28;20232;-71
2023/05/18 12:43:26;;;;;;;5.70;2.90;;;;;;;15.38;38.21;100294.94;10429029;28;20589;-70
2023/05/18 12:48:34;;;;;;;5.70;2.73;;;;;;;16.11;38.08;100305.00;10428342;28;20279;-70
2023/05/18 12:53:42;;;;;;;7.80;3.10;;;;;;;15.85;37.08;100324.72;10430864;28;20235;-71
2023/05/18 12:58:59;;;;;;;5.27;2.90;;;;;;;15.21;37.39;100301.75;10431541;28;20240;-72
2023/05/18 13:04:00;;;;;;;5.00;2.47;;;;;;;15.41;36.89;100326.88;10426775;28;20231;-70
2023/05/18 13:09:12;;;;;;;5.57;2.53;;;;;;;15.60;37.60;100330.69;10429033;28;20287;-70
2023/05/18 13:14:18;;;;;;;5.47;2.80;;;;;;;15.39;37.22;100341.63;10428297;28;20326;-73
2023/05/18 13:19:20;;;;;;;4.63;2.77;;;;;;;15.68;36.81;100286.50;10430244;28;20224;-72
2023/05/18 13:24:22;;;;;;;10.67;2.77;;;;;;;15.92;37.13;100286.94;10430856;28;20800;-72
2023/05/18 13:29:24;;;;;;;3.63;2.60;;;;;;;15.82;36.54;100295.44;10427462;28;20232;-70
2023/05/18 13:34:27;;;;;;;3.80;2.83;;;;;;;16.22;36.29;100292.72;10425692;28;20619;-72
2023/05/18 13:39:38;;;;;;;6.20;3.10;;;;;;;16.06;36.28;100293.97;10426691;28;20228;-72
2023/05/18 13:44:40;;;;;;;8.60;2.50;;;;;;;15.95;35.88;100310.81;10433137;28;20243;-72
2023/05/18 13:49:42;;;;;;;4.97;2.30;;;;;;;15.32;36.30;100284.97;10430709;28;20232;-71
2023/05/18 13:54:45;;;;;;;5.03;2.70;;;;;;;16.90;35.72;100257.22;10432061;28;20236;-72
2023/05/18 13:59:52;;;;;;;6.67;2.77;;;;;;;15.76;36.83;100278.22;10426061;28;20727;-72
2023/05/18 14:04:55;;;;;;;8.47;2.60;;;;;;;15.28;36.66;100237.88;10428799;28;20261;-72
2023/05/18 14:09:57;;;;;;;7.07;2.30;;;;;;;16.81;36.11;100220.69;10429441;28;20228;-72
2023/05/18 14:15:04;;;;;;;7.10;2.67;;;;;;;16.44;35.84;100232.03;10429741;28;20242;-72
2023/05/18 14:20:06;;;;;;;7.87;2.47;;;;;;;16.53;35.83;100235.31;10428660;28;20314;-72
2023/05/18 14:25:08;;;;;;;5.90;2.30;;;;;;;15.92;36.22;100201.41;10422416;28;20700;-73
2023/05/18 14:30:10;;;;;;;4.40;2.20;;;;;;;16.43;36.17;100194.44;10427711;28;20255;-72
2023/05/18 14:35:12;;;;;;;4.23;2.37;;;;;;;15.37;36.21;100201.59;10426457;28;20234;-72
2023/05/18 14:40:14;;;;;;;6.93;2.63;;;;;;;15.31;36.37;100210.50;10426890;28;20235;-72
2023/05/18 14:45:16;;;;;;;7.23;2.30;;;;;;;16.66;35.49;100179.59;10422938;28;20236;-72
2023/05/18 14:50:17;;;;;;;5.50;2.67;;;;;;;15.07;36.23;100177.72;10425194;28;20623;-72
2023/05/18 14:55:21;;;;;;;7.07;2.30;;;;;;;16.31;35.10;100179.94;10430396;28;20235;-72
2023/05/18 15:00:26;;;;;;;6.07;2.90;;;;;;;17.13;35.63;100131.53;10427748;28;20228;-72
2023/05/18 15:05:28;;;;;;;4.03;2.37;;;;;;;16.37;35.43;100198.84;10422757;28;20246;-72
2023/05/18 15:10:29;;;;;;;5.97;2.23;;;;;;;15.70;35.29;100169.25;10428398;28;20232;-71
2023/05/18 15:15:32;;;;;;;8.03;2.70;;;;;;;16.49;34.76;100171.16;10423507;28;20232;-72
2023/05/18 15:20:35;;;;;;;5.10;2.50;;;;;;;15.68;34.82;100143.53;10418311;28;20232;-72
2023/05/18 15:25:43;;;;;;;3.93;2.17;;;;;;;16.72;34.77;100149.00;10425398;28;20247;-72
2023/05/18 15:30:48;;;;;;;4.73;2.60;;;;;;;16.18;34.93;100135.72;10422603;28;20270;-72
2023/05/18 15:35:50;;;;;;;7.70;2.70;;;;;;;16.58;34.55;100153.66;10427328;28;21296;-72
2023/05/18 15:40:55;;;;;;;3.47;2.20;;;;;;;17.21;34.29;100133.97;10423131;28;20264;-72
2023/05/18 15:45:59;;;;;;;4.80;2.33;;;;;;;16.34;35.15;100137.13;10426427;28;20244;-72
2023/05/18 15:51:00;;;;;;;5.50;2.07;;;;;;;16.23;34.12;100156.69;10430881;28;20886;-72
2023/05/18 15:56:08;;;;;;;4.50;2.40;;;;;;;16.60;34.22;100170.47;10434857;28;20716;-72
2023/05/18 16:01:13;;;;;;;3.27;2.27;;;;;;;16.72;33.69;100138.19;10430164;28;20319;-72
2023/05/18 16:06:14;;;;;;;4.60;2.80;;;;;;;17.32;34.23;100078.31;10423203;28;20236;-72
2023/05/18 16:11:16;;;;;;;5.00;2.40;;;;;;;16.70;33.98;100094.34;10431110;28;20658;-72
2023/05/18 16:16:22;;;;;;;5.77;2.40;;;;;;;17.12;33.77;100095.56;10426099;28;20274;-70
2023/05/18 16:21:24;;;;;;;6.83;2.40;;;;;;;17.20;34.33;100129.59;10423975;28;20247;-71
2023/05/18 16:26:35;;;;;;;6.03;2.20;;;;;;;17.23;33.61;100110.22;10429394;28;20240;-70
2023/05/18 16:31:43;;;;;;;5.03;2.73;;;;;;;16.44;34.17;100083.50;10423485;28;20848;-70
2023/05/18 16:36:55;;;;;;;5.93;2.65;;;;;;;17.68;33.50;100092.97;10423249;28;20315;-70
2023/05/18 16:41:59;;;;;;;4.10;2.20;;;;;;;16.52;33.68;100101.31;10424490;28;20223;-70
2023/05/18 16:47:01;;;;;;;4.73;2.20;;;;;;;16.91;33.53;100095.91;10429857;28;20255;-70
2023/05/18 16:52:03;;;;;;;5.63;2.60;;;;;;;17.12;33.94;100092.84;10424261;28;20351;-72
2023/05/18 16:57:05;;;;;;;5.60;2.53;;;;;;;17.23;33.72;100115.63;10428078;28;20336;-70
2023/05/18 17:02:12;;;;;;;5.13;2.53;;;;;;;16.46;34.22;100107.59;10423234;28;20317;-72
2023/05/18 17:07:14;;;;;;;4.20;2.37;;;;;;;16.84;34.25;100147.28;10425253;28;20250;-73
2023/05/18 17:12:18;;;;;;;5.43;2.50;;;;;;;18.06;33.74;100062.97;10426708;28;20232;-73
2023/05/18 17:17:19;;;;;;;4.87;2.80;;;;;;;17.34;34.04;100114.06;10422121;28;20241;-73
2023/05/18 17:22:21;;;;;;;4.43;2.87;;;;;;;17.45;33.60;100121.47;10426729;28;20228;-72
2023/05/18 17:27:23;;;;;;;5.17;2.60;;;;;;;17.12;33.69;100108.22;10424053;28;20232;-73
2023/05/18 17:32:28;;;;;;;3.63;2.10;;;;;;;15.63;34.70;100067.81;10430131;28;20251;-73
2023/05/18 17:37:29;;;;;;;4.03;2.40;;;;;;;16.12;33.87;100050.19;10428157;28;20277;-73
2023/05/18 17:42:36;;;;;;;4.47;2.67;;;;;;;17.02;33.98;100124.09;10421386;28;20232;-72
2023/05/18 17:47:40;;;;;;;6.97;3.10;;;;;;;15.03;34.97;100055.19;10425079;28;20309;-73
2023/05/18 17:52:42;;;;;;;10.60;2.80;;;;;;;16.09;34.42;100137.00;10428682;28;20351;-69
2023/05/18 17:57:46;;;;;;;3.80;2.20;;;;;;;16.10;34.94;100127.88;10431859;28;20245;-70
2023/05/18 18:02:48;;;;;;;4.53;2.40;;;;;;;15.97;34.47;100141.41;10416030;28;20605;-70
2023/05/18 18:07:57;;;;;;;5.47;2.60;;;;;;;15.70;34.69;100093.72;10428162;28;20219;-69
2023/05/18 18:12:58;;;;;;;5.07;2.10;;;;;;;15.40;35.33;100095.19;10420082;28;20216;-69
2023/05/18 18:18:02;;;;;;;6.37;2.60;;;;;;;15.76;35.18;100128.97;10422320;28;20807;-68
2023/05/18 18:23:05;;;;;;;4.70;2.50;;;;;;;15.61;35.68;100145.41;10420220;28;20247;-68
2023/05/18 18:28:13;;;;;;;7.17;2.30;;;;;;;15.63;35.08;100127.97;10419362;28;20285;-68
2023/05/18 18:33:19;;;;;;;4.13;2.27;;;;;;;14.32;35.90;99988.38;10419716;28;20244;-68
2023/05/18 18:38:22;;;;;;;4.93;2.40;;;;;;;15.86;35.69;100154.50;10427223;28;20766;-68
2023/05/18 18:43:23;;;;;;;3.07;1.97;;;;;;;15.73;35.38;100151.00;10424068;28;20235;-68
2023/05/18 18:48:27;;;;;;;4.33;2.20;;;;;;;16.70;34.70;100140.28;10424446;28;20239;-68
2023/05/18 18:53:31;;;;;;;6.13;2.40;;;;;;;16.32;34.84;100155.44;10425202;28;20235;-68
2023/05/18 18:58:33;;;;;;;5.50;2.23;;;;;;;16.27;34.91;100139.03;10424150;28;20243;-67
2023/05/18 19:03:34;;;;;;;5.13;2.40;;;;;;;16.27;35.30;100151.72;10420005;28;20241;-69
2023/05/18 19:08:36;;;;;;;5.00;2.40;;;;;;;15.10;36.25;100101.00;10422898;28;20727;-68
2023/05/18 19:13:38;;;;;;;6.30;2.97;;;;;;;16.13;35.39;100164.38;10417115;28;20734;-70
2023/05/18 19:18:45;;;;;;;5.40;2.37;;;;;;;15.76;35.46;100151.41;10422046;28;20226;-70
2023/05/18 19:23:47;;;;;;;4.10;2.40;;;;;;;16.65;35.12;100177.94;10418241;28;20730;-69
2023/05/18 19:28:49;;;;;;;5.30;2.43;;;;;;;15.63;36.04;100171.13;10428764;28;20320;-72
2023/05/18 19:33:55;;;;;;;4.00;2.10;;;;;;;15.92;36.04;100176.28;10431404;28;20239;-70
2023/05/18 19:38:56;;;;;;;8.40;2.67;;;;;;;14.92;36.72;100158.19;10430889;28;20251;-69
2023/05/18 19:44:00;;;;;;;5.90;3.17;;;;;;;14.98;36.66;100188.88;10427259;28;20232;-67
2023/05/18 19:49:11;;;;;;;5.90;2.70;;;;;;;15.00;36.62;100178.72;10432227;28;20335;-70
2023/05/18 19:54:13;;;;;;;6.43;2.33;;;;;;;14.49;37.09;100151.22;10428866;28;20330;-71
2023/05/18 19:59:14;;;;;;;6.20;2.23;;;;;;;15.13;36.79;100192.22;10435876;28;20433;-70
2023/05/18 20:04:22;;;;;;;5.23;2.60;;;;;;;15.01;37.29;100188.47;10391468;28;20244;-70
2023/05/18 20:09:25;;;;;;;4.77;2.40;;;;;;;15.00;36.78;100203.81;10428907;28;20224;-69
2023/05/18 20:14:37;;;;;;;4.10;2.30;;;;;;;15.31;36.93;100189.75;10427830;28;20316;-68
2023/05/18 20:19:39;;;;;;;5.27;2.80;;;;;;;15.36;36.17;100186.44;10397053;28;20227;-69
2023/05/18 20:24:43;;;;;;;7.83;2.93;;;;;;;14.03;37.25;100167.94;10420164;28;20255;-69
2023/05/18 20:29:47;;;;;;;5.00;2.73;;;;;;;13.84;37.82;100156.84;10431006;28;20289;-68
2023/05/18 20:34:49;;;;;;;3.57;2.30;;;;;;;14.77;36.49;100204.13;10424929;28;20232;-68
2023/05/18 20:39:51;;;;;;;4.27;2.47;;;;;;;14.59;36.95;100202.84;10422412;28;20228;-68
2023/05/18 20:44:54;;;;;;;6.70;2.70;;;;;;;14.12;37.44;100182.94;10424214;28;20314;-68
2023/05/18 20:50:04;;;;;;;5.77;2.53;;;;;;;15.04;37.19;100201.53;10446179;28;20753;-69
2023/05/18 20:55:06;;;;;;;6.10;2.80;;;;;;;14.02;37.69;100185.13;10448086;28;20320;-68
2023/05/18 21:00:18;;;;;;;5.33;2.40;;;;;;;12.80;39.10;100084.03;10451644;28;20238;-68
2023/05/18 21:05:23;;;;;;;6.20;2.77;;;;;;;13.88;38.09;100194.13;10441995;28;20228;-66
2023/05/18 21:10:27;;;;;;;3.97;2.50;;;;;;;14.58;37.42;100197.66;10443129;28;20200;-69
2023/05/18 21:15:28;;;;;;;4.73;2.63;;;;;;;14.18;38.04;100211.72;10446865;28;20224;-69
2023/05/18 21:20:42;;;;;;;8.50;3.33;;;;;;;12.69;39.77;100117.59;10437360;28;20208;-69
2023/05/18 21:25:44;;;;;;;4.50;2.60;;;;;;;12.36;39.90;100115.31;10448897;28;20266;-69
2023/05/18 21:31:02;;;;;;;5.20;3.10;;;;;;;12.95;39.69;100183.34;10439199;28;20247;-69
2023/05/18 21:36:08;;;;;;;5.73;3.03;;;;;;;13.83;38.92;100206.31;10449483;28;20241;-70
2023/05/18 21:41:12;;;;;;;6.97;3.00;;;;;;;12.95;39.54;100184.19;10443700;28;20239;-69
2023/05/18 21:46:14;;;;;;;6.40;2.67;;;;;;;13.89;39.04;100211.94;10455291;28;20799;-69
2023/05/18 21:51:21;;;;;;;4.27;2.70;;;;;;;13.52;39.53;100214.72;10443809;28;20243;-68
2023/05/18 21:56:23;;;;;;;5.40;2.87;;;;;;;13.82;39.51;100211.88;10444024;28;20719;-69
2023/05/18 22:01:28;;;;;;;4.73;2.30;;;;;;;14.55;38.83;100188.09;10438621;28;20747;-69
2023/05/18 22:06:30;;;;;;;5.13;2.93;;;;;;;13.25;40.00;100227.06;10438776;28;20227;-69
2023/05/18 22:11:31;;;;;;;5.87;3.00;;;;;;;14.67;38.47;100193.72;10451694;28;20234;-69
2023/05/18 22:16:37;;;;;;;5.87;3.10;;;;;;;13.66;39.54;100238.00;10431736;28;20259;-69
2023/05/18 22:21:41;;;;;;;7.40;2.93;;;;;;;13.87;39.09;100230.94;10450532;28;20232;-69
2023/05/18 22:26:49;;;;;;;8.40;2.77;;;;;;;13.25;40.12;100227.88;10446347;28;20251;-69
2023/05/18 22:31:53;;;;;;;7.80;2.77;;;;;;;11.41;43.03;100087.41;10449182;28;20231;-69
2023/05/18 22:36:55;;;;;;;4.23;2.70;;;;;;;11.60;42.71;100150.34;10450242;28;20232;-68
2023/05/18 22:41:57;;;;;;;6.67;3.33;;;;;;;12.99;41.17;100198.91;10440544;28;20238;-69
2023/05/18 22:47:00;;;;;;;2.80;2.30;;;;;;;13.53;40.03;100210.19;10441610;28;20333;-69
2023/05/18 22:52:05;;;;;;;5.77;2.87;;;;;;;12.67;41.15;100222.50;10431944;28;20607;-69
2023/05/18 22:57:07;;;;;;;5.37;2.63;;;;;;;13.01;40.53;100212.13;10432803;28;20703;-69
2023/05/18 23:02:14;;;;;;;5.77;2.87;;;;;;;11.91;41.68;100190.47;10424707;28;20239;-69
2023/05/18 23:07:16;;;;;;;8.07;3.47;;;;;;;11.08;43.40;100138.56;10429531;28;20236;-68
2023/05/18 23:12:19;;;;;;;5.40;2.70;;;;;;;11.49;42.67;100182.94;10432161;28;20238;-69
2023/05/18 23:17:25;;;;;;;6.20;4.10;;;;;;;11.83;42.71;100195.91;10421682;28;20232;-68
2023/05/18 23:22:32;;;;;;;6.40;3.33;;;;;;;11.62;43.35;100184.06;10429393;28;20231;-69
2023/05/18 23:27:35;;;;;;;6.53;3.10;;;;;;;11.69;42.79;100194.84;10423243;28;20225;-69
2023/05/18 23:32:37;;;;;;;6.83;3.07;;;;;;;10.98;43.78;100160.22;10425331;28;20293;-69